Time;durP1;ratioP1;P1;durP2;ratioP2;P2;SDS_P1;SDS_P2;PMS_P1;PMS_P2;Temp;Humidity;BMP_temperature;BMP_pressure;BME280_temperature;BME280_humidity;BME280_pressure;Samples;Min_cycle;Max_cycle;Signal;HPM_P1;HPM_P2
2023/03/16 00:01:26;;;;;;;21.45;9.88;;;;;;;;;;4999578;28;20050;-65
2023/03/16 00:03:52;;;;;;;13.15;7.57;;;;;;;;;;4942004;28;20735;-65
2023/03/16 00:06:17;;;;;;;17.00;8.70;;;;;;;;;;4974718;28;20158;-64
2023/03/16 00:08:45;;;;;;;13.63;7.55;;;;;;;;;;4976267;28;20042;-65
2023/03/16 00:11:11;;;;;;;18.02;8.93;;;;;;;;;;4988785;28;20041;-65
2023/03/16 00:13:36;;;;;;;13.18;8.57;;;;;;;;;;4974166;28;20041;-65
2023/03/16 00:16:06;;;;;;;13.23;8.90;;;;;;;;;;5004772;28;20069;-64
2023/03/16 00:18:37;;;;;;;;;;;;;;;;;;4974627;28;20042;-64
2023/03/16 00:21:04;;;;;;;21.50;12.88;;;;;;;;;;4973550;28;19965;-64
2023/03/16 00:23:34;;;;;;;17.77;9.98;;;;;;;;;;4974170;28;21131;-65
2023/03/16 00:26:01;;;;;;;14.88;8.25;;;;;;;;;;4973252;28;20045;-65
2023/03/16 00:28:28;;;;;;;13.43;8.43;;;;;;;;;;4983503;28;20049;-65
2023/03/16 00:30:57;;;;;;;13.38;7.15;;;;;;;;;;4939492;28;20153;-65
2023/03/16 00:33:23;;;;;;;13.60;7.20;;;;;;;;;;4969367;28;20041;-65
2023/03/16 00:35:48;;;;;;;13.73;7.72;;;;;;;;;;4974537;28;20557;-65
2023/03/16 00:38:20;;;;;;;14.23;6.97;;;;;;;;;;4974702;28;20054;-66
2023/03/16 00:40:46;;;;;;;11.73;6.78;;;;;;;;;;4974284;28;20057;-65
2023/03/16 00:43:12;;;;;;;15.73;7.30;;;;;;;;;;4974132;28;20131;-65
2023/03/16 00:45:37;;;;;;;13.18;7.22;;;;;;;;;;4973466;28;20038;-65
2023/03/16 00:48:05;;;;;;;13.90;6.95;;;;;;;;;;4972188;28;20093;-65
2023/03/16 00:50:30;;;;;;;12.77;6.97;;;;;;;;;;4973318;28;20115;-66
2023/03/16 00:52:55;;;;;;;15.57;7.20;;;;;;;;;;4973487;28;20848;-65
2023/03/16 00:55:20;;;;;;;10.30;6.13;;;;;;;;;;4972686;28;20034;-66
2023/03/16 00:57:46;;;;;;;14.02;7.10;;;;;;;;;;4976712;28;20038;-65
2023/03/16 01:00:14;;;;;;;12.73;7.32;;;;;;;;;;4973343;28;20034;-65
2023/03/16 01:02:39;;;;;;;15.38;6.82;;;;;;;;;;4973502;28;20138;-67
2023/03/16 01:05:05;;;;;;;13.32;6.95;;;;;;;;;;4973261;28;20038;-65
2023/03/16 01:07:30;;;;;;;12.80;7.13;;;;;;;;;;4960460;28;20042;-65
2023/03/16 01:09:56;;;;;;;13.02;6.30;;;;;;;;;;4987304;28;20038;-65
2023/03/16 01:12:23;;;;;;;16.13;7.43;;;;;;;;;;4972212;28;20160;-66
2023/03/16 01:14:48;;;;;;;16.48;7.97;;;;;;;;;;4972737;28;20110;-65
2023/03/16 01:17:14;;;;;;;16.88;7.40;;;;;;;;;;4988223;28;20042;-65
2023/03/16 01:19:40;;;;;;;20.23;8.23;;;;;;;;;;4965335;28;20042;-65
2023/03/16 01:22:05;;;;;;;15.43;6.78;;;;;;;;;;4989789;28;20152;-64
2023/03/16 01:24:31;;;;;;;11.18;6.68;;;;;;;;;;4959985;28;20797;-65
2023/03/16 01:26:56;;;;;;;10.82;6.63;;;;;;;;;;4984069;28;20038;-65
2023/03/16 01:29:22;;;;;;;15.20;6.82;;;;;;;;;;4952778;28;20149;-66
2023/03/16 01:31:48;;;;;;;13.25;7.40;;;;;;;;;;4960093;28;20030;-67
2023/03/16 01:34:16;;;;;;;15.25;6.78;;;;;;;;;;4972739;28;20031;-66
2023/03/16 01:36:45;;;;;;;15.10;7.85;;;;;;;;;;4964756;28;20081;-65
2023/03/16 01:39:10;;;;;;;14.00;7.47;;;;;;;;;;4973085;28;20085;-67
2023/03/16 01:41:40;;;;;;;15.95;7.95;;;;;;;;;;4972270;28;20050;-68
2023/03/16 01:44:05;;;;;;;11.32;7.50;;;;;;;;;;4972315;28;20044;-66
2023/03/16 01:46:33;;;;;;;16.83;8.13;;;;;;;;;;4972332;28;20052;-66
2023/03/16 01:48:58;;;;;;;16.88;8.73;;;;;;;;;;4973203;28;21141;-66
2023/03/16 01:51:23;;;;;;;13.23;7.43;;;;;;;;;;4972132;28;20149;-65
2023/03/16 01:53:51;;;;;;;12.75;7.80;;;;;;;;;;4969862;28;20140;-66
2023/03/16 01:56:19;;;;;;;17.00;9.02;;;;;;;;;;4971981;28;20073;-65
2023/03/16 01:58:44;;;;;;;15.80;7.95;;;;;;;;;;4984802;28;20045;-65
2023/03/16 02:01:13;;;;;;;18.52;9.02;;;;;;;;;;4955591;28;20936;-65
2023/03/16 02:03:39;;;;;;;19.42;9.63;;;;;;;;;;4952111;28;20141;-65
2023/03/16 02:06:10;;;;;;;19.75;9.65;;;;;;;;;;4952378;28;20087;-65
2023/03/16 02:08:36;;;;;;;19.58;9.38;;;;;;;;;;4982798;28;21098;-64
2023/03/16 02:11:03;;;;;;;13.98;8.50;;;;;;;;;;4981856;28;20038;-65
2023/03/16 02:13:32;;;;;;;14.75;8.05;;;;;;;;;;4951368;28;20045;-65
2023/03/16 02:15:58;;;;;;;16.00;8.50;;;;;;;;;;4952348;28;20041;-65
2023/03/16 02:18:23;;;;;;;15.15;8.23;;;;;;;;;;4952311;28;20124;-66
2023/03/16 02:21:07;;;;;;;19.05;9.13;;;;;;;;;;4955043;28;20046;-66
2023/03/16 02:23:34;;;;;;;17.42;8.07;;;;;;;;;;4982119;28;20071;-65
2023/03/16 02:26:05;;;;;;;14.55;7.82;;;;;;;;;;4982018;28;20038;-66
2023/03/16 02:28:36;;;;;;;16.00;8.20;;;;;;;;;;4951270;28;20065;-65
2023/03/16 02:31:02;;;;;;;14.13;7.93;;;;;;;;;;4990428;28;20057;-66
2023/03/16 02:33:28;;;;;;;20.02;9.35;;;;;;;;;;4963188;28;20044;-65
2023/03/16 02:35:54;;;;;;;19.15;8.73;;;;;;;;;;4951029;28;20042;-66
2023/03/16 02:38:19;;;;;;;18.10;9.05;;;;;;;;;;4952648;28;20101;-67
2023/03/16 02:40:51;;;;;;;19.48;9.05;;;;;;;;;;4953566;28;20046;-66
2023/03/16 02:43:23;;;;;;;17.15;8.68;;;;;;;;;;4967413;28;20145;-66
2023/03/16 02:45:50;;;;;;;15.43;8.15;;;;;;;;;;4970795;28;20069;-66
2023/03/16 02:48:22;;;;;;;13.32;7.95;;;;;;;;;;4972144;28;20033;-66
2023/03/16 02:50:50;;;;;;;13.48;7.82;;;;;;;;;;4981541;28;20945;-67
2023/03/16 02:53:15;;;;;;;13.82;7.57;;;;;;;;;;4971691;28;20038;-67
2023/03/16 02:55:43;;;;;;;17.25;8.32;;;;;;;;;;4973269;28;20045;-66
2023/03/16 02:58:10;;;;;;;15.60;8.95;;;;;;;;;;4969836;28;20141;-66
2023/03/16 03:00:36;;;;;;;16.38;8.77;;;;;;;;;;4965864;28;20944;-67
2023/03/16 03:03:03;;;;;;;18.25;9.00;;;;;;;;;;4982711;28;20034;-72
2023/03/16 03:05:31;;;;;;;13.15;8.50;;;;;;;;;;4969140;28;20029;-72
2023/03/16 03:07:59;;;;;;;15.75;8.30;;;;;;;;;;4977753;28;20695;-71
2023/03/16 03:10:24;;;;;;;13.57;8.32;;;;;;;;;;4969271;28;20026;-70
2023/03/16 03:12:54;;;;;;;18.23;8.50;;;;;;;;;;4969568;28;22294;-72
2023/03/16 03:15:20;;;;;;;21.98;9.82;;;;;;;;;;4968868;28;20797;-71
2023/03/16 03:17:45;;;;;;;15.98;8.80;;;;;;;;;;4969524;28;22302;-71
2023/03/16 03:20:15;;;;;;;12.90;8.48;;;;;;;;;;4969749;28;20510;-72
2023/03/16 03:22:40;;;;;;;13.95;9.02;;;;;;;;;;4970825;28;20062;-71
2023/03/16 03:25:06;;;;;;;16.58;9.27;;;;;;;;;;5001045;28;20043;-71
2023/03/16 03:27:32;;;;;;;15.30;8.40;;;;;;;;;;5000058;28;20882;-70
2023/03/16 03:29:57;;;;;;;15.35;8.77;;;;;;;;;;4999600;28;20135;-71
2023/03/16 03:32:25;;;;;;;17.52;9.15;;;;;;;;;;4968408;28;20889;-70
2023/03/16 03:34:51;;;;;;;16.90;9.55;;;;;;;;;;4988758;28;20061;-71
2023/03/16 03:37:18;;;;;;;13.30;8.55;;;;;;;;;;5001162;28;20042;-71
2023/03/16 03:39:44;;;;;;;15.10;8.85;;;;;;;;;;4970084;28;20767;-71
2023/03/16 03:42:10;;;;;;;14.30;8.35;;;;;;;;;;4975473;28;20049;-71
2023/03/16 03:44:35;;;;;;;13.48;8.40;;;;;;;;;;4951673;28;20069;-71
2023/03/16 03:47:01;;;;;;;14.38;8.82;;;;;;;;;;4950484;28;21301;-71
2023/03/16 03:49:26;;;;;;;14.48;9.02;;;;;;;;;;4981881;28;20050;-72
2023/03/16 03:51:54;;;;;;;14.75;8.52;;;;;;;;;;4950304;28;20045;-71
2023/03/16 03:54:22;;;;;;;14.45;9.13;;;;;;;;;;4951607;28;20116;-70
2023/03/16 03:56:47;;;;;;;15.57;9.32;;;;;;;;;;4952236;28;20866;-71
2023/03/16 03:59:12;;;;;;;15.32;9.45;;;;;;;;;;4950860;28;20043;-71
2023/03/16 04:01:38;;;;;;;17.23;9.30;;;;;;;;;;4950657;28;21412;-72
2023/03/16 04:04:03;;;;;;;16.80;9.05;;;;;;;;;;4950569;28;20049;-72
2023/03/16 04:06:28;;;;;;;14.68;9.07;;;;;;;;;;4949535;28;20518;-72
2023/03/16 04:08:54;;;;;;;14.95;9.02;;;;;;;;;;4966937;28;20042;-70
2023/03/16 04:11:19;;;;;;;13.63;8.57;;;;;;;;;;4947568;28;20147;-70
2023/03/16 04:13:45;;;;;;;13.43;9.00;;;;;;;;;;4958102;28;20043;-70
2023/03/16 04:16:15;;;;;;;17.63;9.18;;;;;;;;;;4964006;28;20808;-71
2023/03/16 04:18:45;;;;;;;14.13;8.23;;;;;;;;;;4949554;28;21821;-71
2023/03/16 04:21:15;;;;;;;16.40;8.48;;;;;;;;;;4948927;28;20053;-72
2023/03/16 04:23:41;;;;;;;14.73;8.48;;;;;;;;;;4952907;28;20034;-65
2023/03/16 04:26:09;;;;;;;15.90;9.07;;;;;;;;;;4952674;28;20145;-66
2023/03/16 04:28:34;;;;;;;17.02;8.38;;;;;;;;;;4970716;28;20056;-66
2023/03/16 04:31:04;;;;;;;17.25;8.75;;;;;;;;;;4972996;28;20045;-66
2023/03/16 04:33:31;;;;;;;14.13;8.38;;;;;;;;;;4972630;28;20045;-65
2023/03/16 04:35:56;;;;;;;17.17;8.63;;;;;;;;;;4986982;28;20079;-65
2023/03/16 04:38:21;;;;;;;19.35;9.05;;;;;;;;;;4970877;28;20045;-66
2023/03/16 04:40:47;;;;;;;17.15;8.73;;;;;;;;;;4987611;28;20128;-66
2023/03/16 04:43:12;;;;;;;13.98;8.38;;;;;;;;;;4971335;28;20041;-65
2023/03/16 04:45:37;;;;;;;19.83;8.77;;;;;;;;;;4971981;28;20705;-66
2023/03/16 04:48:03;;;;;;;19.10;8.77;;;;;;;;;;4957009;28;20049;-65
2023/03/16 04:50:28;;;;;;;20.52;8.95;;;;;;;;;;4983866;28;20133;-66
2023/03/16 04:52:53;;;;;;;20.33;10.15;;;;;;;;;;4949552;28;20119;-67
2023/03/16 04:55:19;;;;;;;17.58;9.05;;;;;;;;;;4950460;28;20889;-66
2023/03/16 04:57:44;;;;;;;16.00;9.90;;;;;;;;;;4969355;28;20038;-65
2023/03/16 05:00:20;;;;;;;19.92;9.23;;;;;;;;;;4971712;28;20038;-65
2023/03/16 05:02:46;;;;;;;17.83;8.63;;;;;;;;;;4968742;28;20050;-66
2023/03/16 05:05:11;;;;;;;14.65;8.63;;;;;;;;;;4972245;28;20042;-65
2023/03/16 05:07:36;;;;;;;16.20;8.65;;;;;;;;;;4971804;28;20124;-66
2023/03/16 05:10:02;;;;;;;12.25;8.30;;;;;;;;;;4980418;28;20045;-66
2023/03/16 05:12:27;;;;;;;14.15;8.77;;;;;;;;;;4977036;28;20045;-66
2023/03/16 05:14:56;;;;;;;13.88;8.45;;;;;;;;;;4970011;28;20030;-66
2023/03/16 05:17:21;;;;;;;13.68;9.25;;;;;;;;;;4948523;28;21091;-66
2023/03/16 05:19:47;;;;;;;15.77;8.85;;;;;;;;;;4953195;28;20038;-66
2023/03/16 05:22:12;;;;;;;15.77;9.30;;;;;;;;;;4950455;28;20042;-66
2023/03/16 05:24:37;;;;;;;16.38;9.57;;;;;;;;;;4960439;28;20034;-66
2023/03/16 05:27:05;;;;;;;15.10;9.32;;;;;;;;;;4951534;28;20030;-66
2023/03/16 05:29:30;;;;;;;17.63;10.32;;;;;;;;;;4951766;28;20061;-66
2023/03/16 05:31:58;;;;;;;17.27;9.80;;;;;;;;;;4951994;28;20969;-65
2023/03/16 05:34:26;;;;;;;18.48;10.65;;;;;;;;;;4950942;28;20121;-64
2023/03/16 05:36:51;;;;;;;17.63;9.65;;;;;;;;;;4982011;28;20030;-65
2023/03/16 05:39:16;;;;;;;18.45;9.65;;;;;;;;;;4950942;28;20074;-65
2023/03/16 05:41:43;;;;;;;15.45;9.20;;;;;;;;;;4952483;28;20050;-68
2023/03/16 05:44:08;;;;;;;16.40;8.98;;;;;;;;;;4952353;28;20038;-65
2023/03/16 05:46:33;;;;;;;18.85;10.10;;;;;;;;;;4982724;28;20126;-66
2023/03/16 05:48:59;;;;;;;26.65;11.45;;;;;;;;;;4973666;28;20089;-67
2023/03/16 05:51:25;;;;;;;22.27;10.23;;;;;;;;;;4952568;28;20089;-64
2023/03/16 05:53:51;;;;;;;19.10;8.68;;;;;;;;;;4959273;28;20045;-64
2023/03/16 05:56:16;;;;;;;14.40;8.15;;;;;;;;;;4951279;28;20034;-65
2023/03/16 05:58:41;;;;;;;14.57;7.45;;;;;;;;;;4951135;28;20038;-67
2023/03/16 06:01:11;;;;;;;15.55;7.88;;;;;;;;;;4975473;28;20056;-67
2023/03/16 06:03:40;;;;;;;16.70;8.43;;;;;;;;;;4951365;28;21176;-66
2023/03/16 06:06:05;;;;;;;13.10;7.63;;;;;;;;;;4951458;28;20096;-66
2023/03/16 06:08:31;;;;;;;16.40;8.00;;;;;;;;;;4950374;28;20034;-63
2023/03/16 06:10:56;;;;;;;14.07;8.80;;;;;;;;;;4950488;28;20038;-64
2023/03/16 06:13:21;;;;;;;14.88;8.07;;;;;;;;;;4950201;28;21157;-66
2023/03/16 06:15:46;;;;;;;15.82;7.88;;;;;;;;;;4958400;28;20054;-65
2023/03/16 06:18:12;;;;;;;13.90;7.85;;;;;;;;;;4949923;28;20034;-65
2023/03/16 06:20:37;;;;;;;19.27;8.60;;;;;;;;;;4951085;28;20046;-65
2023/03/16 06:23:03;;;;;;;16.63;8.13;;;;;;;;;;4959530;28;20435;-65
2023/03/16 06:25:28;;;;;;;14.82;8.15;;;;;;;;;;4952584;28;20049;-66
2023/03/16 06:27:53;;;;;;;17.83;8.38;;;;;;;;;;4950048;28;20026;-65
2023/03/16 06:30:19;;;;;;;13.63;7.20;;;;;;;;;;4980494;28;20152;-64
2023/03/16 06:32:47;;;;;;;13.77;7.88;;;;;;;;;;4949088;28;21712;-64
2023/03/16 06:35:12;;;;;;;14.73;7.00;;;;;;;;;;4948575;28;20131;-64
2023/03/16 06:37:40;;;;;;;16.25;7.10;;;;;;;;;;4950898;28;20076;-65
2023/03/16 06:40:08;;;;;;;16.83;9.20;;;;;;;;;;4994158;28;20037;-66
2023/03/16 06:42:34;;;;;;;18.27;7.05;;;;;;;;;;5000358;28;20758;-64
2023/03/16 06:45:01;;;;;;;12.48;6.35;;;;;;;;;;4968517;28;20095;-63
2023/03/16 06:47:26;;;;;;;12.63;6.88;;;;;;;;;;4969445;28;20049;-65
2023/03/16 06:49:54;;;;;;;17.40;7.55;;;;;;;;;;4986828;28;20034;-65
2023/03/16 06:52:19;;;;;;;10.30;6.68;;;;;;;;;;4950663;28;20924;-65
2023/03/16 06:54:45;;;;;;;10.52;6.28;;;;;;;;;;4957402;28;20038;-65
2023/03/16 06:57:10;;;;;;;14.60;7.22;;;;;;;;;;4949731;28;20118;-64
2023/03/16 06:59:35;;;;;;;16.48;6.55;;;;;;;;;;4948909;28;20042;-65
2023/03/16 07:02:05;;;;;;;14.30;6.70;;;;;;;;;;4964939;28;20045;-65
2023/03/16 07:04:31;;;;;;;10.95;5.70;;;;;;;;;;4969319;28;20033;-66
2023/03/16 07:06:58;;;;;;;10.35;5.70;;;;;;;;;;4971965;28;20038;-64
2023/03/16 07:09:24;;;;;;;18.40;6.63;;;;;;;;;;4969369;28;20034;-66
2023/03/16 07:11:50;;;;;;;13.25;5.80;;;;;;;;;;4971089;28;20068;-65
2023/03/16 07:14:16;;;;;;;11.25;5.10;;;;;;;;;;4999879;28;20045;-64
2023/03/16 07:16:41;;;;;;;11.85;5.93;;;;;;;;;;4967910;28;20052;-64
2023/03/16 07:19:09;;;;;;;14.40;6.97;;;;;;;;;;4969564;28;20048;-66
2023/03/16 07:21:38;;;;;;;13.98;5.70;;;;;;;;;;4968056;28;20042;-65
2023/03/16 07:24:04;;;;;;;19.73;8.18;;;;;;;;;;4998235;28;20116;-66
2023/03/16 07:26:32;;;;;;;11.93;6.10;;;;;;;;;;4970714;28;20050;-65
2023/03/16 07:28:57;;;;;;;15.05;6.13;;;;;;;;;;4968934;28;20037;-65
2023/03/16 07:31:27;;;;;;;12.02;6.00;;;;;;;;;;4969926;28;20136;-66
2023/03/16 07:33:53;;;;;;;15.65;7.35;;;;;;;;;;4984735;28;20763;-64
2023/03/16 07:36:18;;;;;;;9.68;5.00;;;;;;;;;;4969171;28;20096;-66
2023/03/16 07:38:43;;;;;;;10.75;5.30;;;;;;;;;;4983824;28;20213;-64
2023/03/16 07:41:09;;;;;;;8.02;4.40;;;;;;;;;;4969946;28;20053;-66
2023/03/16 07:43:34;;;;;;;13.35;5.32;;;;;;;;;;4960845;28;20046;-65
2023/03/16 07:46:00;;;;;;;15.23;5.88;;;;;;;;;;4977316;28;20148;-66
2023/03/16 07:48:26;;;;;;;11.45;5.20;;;;;;;;;;4952772;28;20131;-66
2023/03/16 07:50:51;;;;;;;11.77;5.22;;;;;;;;;;4981275;28;20145;-67
2023/03/16 07:53:16;;;;;;;14.68;5.40;;;;;;;;;;4949360;28;20165;-66
2023/03/16 07:55:42;;;;;;;11.52;5.28;;;;;;;;;;4947081;28;20057;-65
2023/03/16 07:58:10;;;;;;;9.60;5.10;;;;;;;;;;4966128;28;20037;-66
2023/03/16 08:00:35;;;;;;;12.75;5.10;;;;;;;;;;4969596;28;20142;-66
2023/03/16 08:03:01;;;;;;;13.18;5.72;;;;;;;;;;4968228;28;20037;-65
2023/03/16 08:05:28;;;;;;;10.50;4.85;;;;;;;;;;4961998;28;21044;-66
2023/03/16 08:07:56;;;;;;;8.57;4.60;;;;;;;;;;4952286;28;20177;-66
2023/03/16 08:10:23;;;;;;;12.38;5.20;;;;;;;;;;4956637;28;20037;-66
2023/03/16 08:12:49;;;;;;;12.63;5.18;;;;;;;;;;4966515;28;20167;-65
2023/03/16 08:15:16;;;;;;;9.07;4.68;;;;;;;;;;4967963;28;20467;-64
2023/03/16 08:17:41;;;;;;;9.82;4.00;;;;;;;;;;4970500;28;20136;-66
2023/03/16 08:20:13;;;;;;;11.43;5.50;;;;;;;;;;4982317;28;20240;-66
2023/03/16 08:22:41;;;;;;;7.35;4.55;;;;;;;;;;4967393;28;20204;-65
2023/03/16 08:25:09;;;;;;;10.68;4.97;;;;;;;;;;4966377;28;20050;-66
2023/03/16 08:27:36;;;;;;;11.93;5.20;;;;;;;;;;4970354;28;20073;-66
2023/03/16 08:30:04;;;;;;;14.77;5.00;;;;;;;;;;4968917;28;20669;-65
2023/03/16 08:32:29;;;;;;;13.00;5.15;;;;;;;;;;4967551;28;20060;-65
2023/03/16 08:34:56;;;;;;;11.95;4.53;;;;;;;;;;4956426;28;20037;-66
2023/03/16 08:37:22;;;;;;;10.10;5.28;;;;;;;;;;4947684;28;20039;-65
2023/03/16 08:39:50;;;;;;;12.00;5.28;;;;;;;;;;4957983;28;20077;-65
2023/03/16 08:42:18;;;;;;;8.80;4.22;;;;;;;;;;4948068;28;20406;-65
2023/03/16 08:44:44;;;;;;;7.28;3.90;;;;;;;;;;4946088;28;20137;-66
2023/03/16 08:47:13;;;;;;;8.40;4.05;;;;;;;;;;4967093;28;20042;-65
2023/03/16 08:49:38;;;;;;;8.85;4.00;;;;;;;;;;4956820;28;20038;-66
2023/03/16 08:52:04;;;;;;;10.48;4.57;;;;;;;;;;4948333;28;20616;-64
2023/03/16 08:54:31;;;;;;;11.95;4.18;;;;;;;;;;4947094;28;20042;-66
2023/03/16 08:56:56;;;;;;;9.93;3.90;;;;;;;;;;4946851;28;21000;-66
2023/03/16 08:59:21;;;;;;;8.15;3.90;;;;;;;;;;4951909;28;20488;-65
2023/03/16 09:01:47;;;;;;;7.78;3.72;;;;;;;;;;4947779;28;20458;-65
2023/03/16 09:04:14;;;;;;;10.85;4.70;;;;;;;;;;4967088;28;20637;-66
2023/03/16 09:06:40;;;;;;;12.68;4.35;;;;;;;;;;4971228;28;20030;-67
2023/03/16 09:09:08;;;;;;;12.15;4.85;;;;;;;;;;4966968;28;20116;-66
2023/03/16 09:11:33;;;;;;;9.65;4.05;;;;;;;;;;4963773;28;21670;-67
2023/03/16 09:13:59;;;;;;;12.77;4.85;;;;;;;;;;4963705;28;20033;-66
2023/03/16 09:16:24;;;;;;;8.45;4.05;;;;;;;;;;4965121;28;20037;-66
2023/03/16 09:18:52;;;;;;;10.52;4.32;;;;;;;;;;4953507;28;20092;-67
2023/03/16 09:21:18;;;;;;;9.48;4.78;;;;;;;;;;4980558;28;20053;-67
2023/03/16 09:23:43;;;;;;;7.47;3.92;;;;;;;;;;4966120;28;20034;-66
2023/03/16 09:26:11;;;;;;;9.90;3.92;;;;;;;;;;4969114;28;20160;-66
2023/03/16 09:28:37;;;;;;;10.13;4.10;;;;;;;;;;4963520;28;20521;-65
2023/03/16 09:31:06;;;;;;;11.32;4.57;;;;;;;;;;4976380;28;20072;-65
2023/03/16 09:33:32;;;;;;;10.40;3.72;;;;;;;;;;4966276;28;20029;-66
2023/03/16 09:35:58;;;;;;;11.18;4.05;;;;;;;;;;4965107;28;20558;-66
2023/03/16 09:38:25;;;;;;;11.10;3.95;;;;;;;;;;4976753;28;20080;-67
2023/03/16 09:41:07;;;;;;;10.60;5.00;;;;;;;;;;4978442;28;20048;-67
2023/03/16 09:43:39;;;;;;;9.70;4.05;;;;;;;;;;4964979;28;20480;-69
2023/03/16 09:46:10;;;;;;;13.15;4.70;;;;;;;;;;5013775;28;20084;-65
2023/03/16 09:48:36;;;;;;;8.52;3.78;;;;;;;;;;4986663;28;20037;-67
2023/03/16 09:51:03;;;;;;;10.55;4.03;;;;;;;;;;4993627;28;20049;-67
2023/03/16 09:53:30;;;;;;;16.25;4.45;;;;;;;;;;5010254;28;20581;-67
2023/03/16 09:56:05;;;;;;;10.27;3.80;;;;;;;;;;5006189;28;21873;-66
2023/03/16 09:58:33;;;;;;;7.00;3.33;;;;;;;;;;4985796;28;20331;-67
2023/03/16 10:01:04;;;;;;;9.65;4.07;;;;;;;;;;4985965;28;20290;-66
2023/03/16 10:03:32;;;;;;;7.65;3.70;;;;;;;;;;4989816;28;20111;-66
2023/03/16 10:06:00;;;;;;;14.07;4.28;;;;;;;;;;4988085;28;20034;-68
2023/03/16 10:08:42;;;;;;;12.13;3.97;;;;;;;;;;4986121;28;20038;-67
2023/03/16 10:11:25;;;;;;;11.10;3.55;;;;;;;;;;4985872;28;20046;-68
2023/03/16 10:14:00;;;;;;;13.80;4.90;;;;;;;;;;4974886;28;20034;-66
2023/03/16 10:16:43;;;;;;;11.13;4.05;;;;;;;;;;4966133;28;20047;-67
2023/03/16 10:19:18;;;;;;;9.15;3.85;;;;;;;;;;4985526;28;20033;-66
2023/03/16 10:21:43;;;;;;;18.13;4.72;;;;;;;;;;5017671;28;20038;-66
2023/03/16 10:24:15;;;;;;;11.30;4.18;;;;;;;;;;4987186;28;20044;-67
2023/03/16 10:26:43;;;;;;;17.13;4.30;;;;;;;;;;4985703;28;20043;-65
2023/03/16 10:29:11;;;;;;;11.82;3.95;;;;;;;;;;4982612;28;20041;-67
2023/03/16 10:31:40;;;;;;;15.18;5.10;;;;;;;;;;4985378;28;20042;-66
2023/03/16 10:34:05;;;;;;;10.82;4.78;;;;;;;;;;5016926;28;20138;-65
2023/03/16 10:36:33;;;;;;;9.82;4.10;;;;;;;;;;4984426;28;20042;-66
2023/03/16 10:38:58;;;;;;;16.02;4.75;;;;;;;;;;4986292;28;20053;-67
2023/03/16 10:41:29;;;;;;;16.83;4.78;;;;;;;;;;4991743;28;20070;-67
2023/03/16 10:43:54;;;;;;;20.73;6.22;;;;;;;;;;4981462;28;20644;-66
2023/03/16 10:46:28;;;;;;;12.32;3.80;;;;;;;;;;5007657;28;20092;-66
2023/03/16 10:48:59;;;;;;;11.52;3.75;;;;;;;;;;4987290;28;20037;-65
2023/03/16 10:51:28;;;;;;;12.38;4.22;;;;;;;;;;4988559;28;22309;-67
2023/03/16 10:53:55;;;;;;;20.10;5.47;;;;;;;;;;4986998;28;20617;-66
2023/03/16 10:56:24;;;;;;;15.27;4.90;;;;;;;;;;4986715;28;20095;-66
2023/03/16 10:58:49;;;;;;;15.63;5.47;;;;;;;;;;4988166;28;20049;-66
2023/03/16 11:01:16;;;;;;;19.02;6.30;;;;;;;;;;4982882;28;20042;-66
2023/03/16 11:03:49;;;;;;;15.23;5.75;;;;;;;;;;4985973;28;20144;-66
2023/03/16 11:06:19;;;;;;;16.02;4.70;;;;;;;;;;4988679;28;20113;-65
2023/03/16 11:08:47;;;;;;;15.85;5.00;;;;;;;;;;4987767;28;20719;-66
2023/03/16 11:11:15;;;;;;;20.15;5.40;;;;;;;;;;5019349;28;20069;-65
2023/03/16 11:13:44;;;;;;;13.70;4.95;;;;;;;;;;4987221;28;20029;-66
2023/03/16 11:16:22;;;;;;;15.95;6.07;;;;;;;;;;4990078;28;20043;-66
2023/03/16 11:18:53;;;;;;;13.30;3.90;;;;;;;;;;4988308;28;20042;-69
2023/03/16 11:21:21;;;;;;;16.15;4.80;;;;;;;;;;4987290;28;20530;-67
2023/03/16 11:23:53;;;;;;;20.95;6.05;;;;;;;;;;4977961;28;20112;-65
2023/03/16 11:26:26;;;;;;;24.13;6.70;;;;;;;;;;4967404;28;20664;-65
2023/03/16 11:29:01;;;;;;;15.13;4.93;;;;;;;;;;4965749;28;20131;-66
2023/03/16 11:31:26;;;;;;;21.88;6.20;;;;;;;;;;4996317;28;20034;-66
2023/03/16 11:33:53;;;;;;;22.67;6.78;;;;;;;;;;4989192;28;20198;-66
2023/03/16 11:36:28;;;;;;;19.83;5.30;;;;;;;;;;4988961;28;20107;-67
2023/03/16 11:38:57;;;;;;;16.50;4.80;;;;;;;;;;4989826;28;21383;-76
2023/03/16 11:41:29;;;;;;;18.13;5.90;;;;;;;;;;4990990;28;22409;-74
2023/03/16 11:43:54;;;;;;;;;;;;;;;;;;4999424;28;20047;-74
2023/03/16 11:46:29;;;;;;;14.07;4.18;;;;;;;;;;5021275;28;19917;-74
2023/03/16 11:49:09;;;;;;;16.60;5.40;;;;;;;;;;4991585;28;20117;-73
2023/03/16 11:51:41;;;;;;;16.58;4.75;;;;;;;;;;4999488;28;20065;-74
2023/03/16 11:54:15;;;;;;;14.63;4.82;;;;;;;;;;5002240;28;20197;-75
2023/03/16 11:56:49;;;;;;;16.05;4.70;;;;;;;;;;4992182;28;20120;-75
2023/03/16 11:59:29;;;;;;;24.48;6.90;;;;;;;;;;4991935;28;20042;-74
2023/03/16 12:02:06;;;;;;;19.88;5.82;;;;;;;;;;4992199;28;20084;-76
2023/03/16 12:04:35;;;;;;;14.35;5.18;;;;;;;;;;5021365;28;20057;-75
2023/03/16 12:07:23;;;;;;;23.13;6.65;;;;;;;;;;4993904;28;20042;-74
2023/03/16 12:09:53;;;;;;;21.80;6.10;;;;;;;;;;4991389;28;20133;-73
2023/03/16 12:12:18;;;;;;;17.48;5.72;;;;;;;;;;4995098;28;20038;-73
2023/03/16 12:14:49;;;;;;;17.00;4.85;;;;;;;;;;4991552;28;20045;-73
2023/03/16 12:17:19;;;;;;;10.48;3.70;;;;;;;;;;4971613;28;20035;-73
2023/03/16 12:19:45;;;;;;;17.73;4.70;;;;;;;;;;5003155;28;20759;-74
2023/03/16 12:22:16;;;;;;;13.45;4.85;;;;;;;;;;4990488;28;20392;-76
2023/03/16 12:24:42;;;;;;;17.38;5.15;;;;;;;;;;4986822;28;20048;-74
2023/03/16 12:27:14;;;;;;;16.13;4.28;;;;;;;;;;5001214;28;20032;-75
2023/03/16 12:29:57;;;;;;;17.85;5.78;;;;;;;;;;4986255;28;20103;-73
2023/03/16 12:32:31;;;;;;;13.88;4.78;;;;;;;;;;4987043;28;20490;-73
2023/03/16 12:35:04;;;;;;;18.63;4.50;;;;;;;;;;4984632;28;20045;-73
2023/03/16 12:37:49;;;;;;;18.98;5.35;;;;;;;;;;4975955;28;20064;-72
2023/03/16 12:40:33;;;;;;;9.98;3.47;;;;;;;;;;4987853;28;20096;-74
2023/03/16 12:43:21;;;;;;;11.23;3.40;;;;;;;;;;4998778;28;20081;-72
2023/03/16 12:45:55;;;;;;;14.80;5.10;;;;;;;;;;4976288;28;20061;-72
2023/03/16 12:48:28;;;;;;;14.15;4.18;;;;;;;;;;4990445;28;20037;-73
2023/03/16 12:50:56;;;;;;;18.73;6.00;;;;;;;;;;4989850;28;20091;-74
2023/03/16 12:53:39;;;;;;;22.17;6.65;;;;;;;;;;4991274;28;20034;-72
2023/03/16 12:56:10;;;;;;;19.77;6.32;;;;;;;;;;4988554;28;20062;-73
2023/03/16 12:58:36;;;;;;;;;;;;;;;;;;4991006;28;20030;-74
2023/03/16 13:01:02;;;;;;;13.15;3.65;;;;;;;;;;4990845;28;19924;-73
2023/03/16 13:03:28;;;;;;;14.30;4.43;;;;;;;;;;4989780;28;20287;-73
2023/03/16 13:05:58;;;;;;;12.68;3.50;;;;;;;;;;4991074;28;20050;-73
2023/03/16 13:08:29;;;;;;;16.98;4.22;;;;;;;;;;4987190;28;20046;-74
2023/03/16 13:11:03;;;;;;;8.38;3.45;;;;;;;;;;4990150;28;20026;-72
2023/03/16 13:13:29;;;;;;;6.35;2.35;;;;;;;;;;4982875;28;20026;-65
2023/03/16 13:16:08;;;;;;;11.35;2.58;;;;;;;;;;4993252;28;20085;-66
2023/03/16 13:18:40;;;;;;;13.13;3.50;;;;;;;;;;4983871;28;20030;-65
2023/03/16 13:21:20;;;;;;;16.00;3.63;;;;;;;;;;5007634;28;20037;-67
2023/03/16 13:23:52;;;;;;;8.50;2.55;;;;;;;;;;4990290;28;22356;-65
2023/03/16 13:26:22;;;;;;;17.92;4.47;;;;;;;;;;4998269;28;20097;-67
2023/03/16 13:28:54;;;;;;;16.77;4.20;;;;;;;;;;4989111;28;20034;-66
2023/03/16 13:31:34;;;;;;;23.25;5.10;;;;;;;;;;4992625;28;20033;-64
2023/03/16 13:34:04;;;;;;;14.05;3.75;;;;;;;;;;4988524;28;20029;-64
2023/03/16 13:36:31;;;;;;;15.95;3.88;;;;;;;;;;4988448;28;20029;-65
2023/03/16 13:39:13;;;;;;;16.45;4.60;;;;;;;;;;4990176;28;20026;-65
2023/03/16 13:41:41;;;;;;;9.35;3.42;;;;;;;;;;4987919;28;20050;-65
2023/03/16 13:44:13;;;;;;;13.98;4.82;;;;;;;;;;4988640;28;20057;-65
2023/03/16 13:46:41;;;;;;;15.27;5.53;;;;;;;;;;4988829;28;20049;-67
2023/03/16 13:49:10;;;;;;;11.57;4.75;;;;;;;;;;4989161;28;20557;-65
2023/03/16 13:51:36;;;;;;;15.35;4.97;;;;;;;;;;4989421;28;20123;-65
2023/03/16 13:54:17;;;;;;;18.20;4.57;;;;;;;;;;5001745;28;20052;-65
2023/03/16 13:56:43;;;;;;;17.73;4.90;;;;;;;;;;4987617;28;20038;-65
2023/03/16 13:59:09;;;;;;;19.48;4.90;;;;;;;;;;4986123;28;20041;-65
2023/03/16 14:01:37;;;;;;;13.98;4.03;;;;;;;;;;4987170;28;20042;-64
2023/03/16 14:04:10;;;;;;;10.50;3.05;;;;;;;;;;4971916;28;20133;-66
2023/03/16 14:06:36;;;;;;;15.40;3.72;;;;;;;;;;5001487;28;20319;-67
2023/03/16 14:09:04;;;;;;;13.90;4.07;;;;;;;;;;4979064;28;20033;-65
2023/03/16 14:11:29;;;;;;;11.52;3.58;;;;;;;;;;4987220;28;20037;-65
2023/03/16 14:13:58;;;;;;;11.15;2.90;;;;;;;;;;4972056;28;20116;-67
2023/03/16 14:16:25;;;;;;;13.07;4.25;;;;;;;;;;4986459;28;20399;-66
2023/03/16 14:19:12;;;;;;;13.25;4.53;;;;;;;;;;4985734;28;20125;-65
2023/03/16 14:21:45;;;;;;;10.57;3.22;;;;;;;;;;4986694;28;20045;-65
2023/03/16 14:24:36;;;;;;;14.43;4.60;;;;;;;;;;4986469;28;20038;-66
2023/03/16 14:27:28;;;;;;;27.90;5.28;;;;;;;;;;4996898;28;20060;-65
2023/03/16 14:30:16;;;;;;;17.30;4.07;;;;;;;;;;4985556;28;20048;-66
2023/03/16 14:32:53;;;;;;;7.53;2.63;;;;;;;;;;4985242;28;20399;-66
2023/03/16 14:35:20;;;;;;;12.85;3.28;;;;;;;;;;4987140;28;20072;-65
2023/03/16 14:37:50;;;;;;;9.55;2.90;;;;;;;;;;4987185;28;21090;-65